sensor_id;sensor_type;location;lat;lon;timestamp;temperature;humidity
29729;DHT22;20055;51.498;11.960;2022-08-25T00:02:02;21.00;99.90
29729;DHT22;20055;51.498;11.960;2022-08-25T00:04:29;21.00;99.90
29729;DHT22;20055;51.498;11.960;2022-08-25T00:06:55;20.90;99.90
29729;DHT22;20055;51.498;11.960;2022-08-25T00:09:24;20.90;99.90
29729;DHT22;20055;51.498;11.960;2022-08-25T00:11:51;20.90;99.90
29729;DHT22;20055;51.498;11.960;2022-08-25T00:14:24;20.90;99.90
29729;DHT22;20055;51.498;11.960;2022-08-25T00:16:51;20.80;99.90
29729;DHT22;20055;51.498;11.960;2022-08-25T00:19:25;20.70;99.90
29729;DHT22;20055;51.498;11.960;2022-08-25T00:21:52;20.80;99.90
29729;DHT22;20055;51.498;11.960;2022-08-25T00:24:19;20.70;99.90
29729;DHT22;20055;51.498;11.960;2022-08-25T00:26:48;20.70;99.90
29729;DHT22;20055;51.498;11.960;2022-08-25T00:29:16;20.70;99.90
29729;DHT22;20055;51.498;11.960;2022-08-25T00:31:43;20.60;99.90
29729;DHT22;20055;51.498;11.960;2022-08-25T00:34:14;20.60;99.90
29729;DHT22;20055;51.498;11.960;2022-08-25T00:36:40;20.60;99.90
29729;DHT22;20055;51.498;11.960;2022-08-25T00:39:09;20.60;99.90
29729;DHT22;20055;51.498;11.960;2022-08-25T00:41:37;20.60;99.90
29729;DHT22;20055;51.498;11.960;2022-08-25T00:44:07;20.50;99.90
29729;DHT22;20055;51.498;11.960;2022-08-25T00:46:37;20.50;99.90
29729;DHT22;20055;51.498;11.960;2022-08-25T00:49:28;20.50;99.90
29729;DHT22;20055;51.498;11.960;2022-08-25T00:52:00;20.40;99.90
29729;DHT22;20055;51.498;11.960;2022-08-25T00:54:31;20.30;99.90
29729;DHT22;20055;51.498;11.960;2022-08-25T00:56:59;20.40;99.90
29729;DHT22;20055;51.498;11.960;2022-08-25T00:59:26;20.30;99.90
29729;DHT22;20055;51.498;11.960;2022-08-25T01:01:53;20.20;99.90
29729;DHT22;20055;51.498;11.960;2022-08-25T01:04:21;20.10;99.90
29729;DHT22;20055;51.498;11.960;2022-08-25T01:06:48;20.10;99.90
29729;DHT22;20055;51.498;11.960;2022-08-25T01:09:15;20.20;99.90
29729;DHT22;20055;51.498;11.960;2022-08-25T01:11:43;20.10;99.90
29729;DHT22;20055;51.498;11.960;2022-08-25T01:14:12;20.10;99.90
29729;DHT22;20055;51.498;11.960;2022-08-25T01:16:40;20.10;99.90
29729;DHT22;20055;51.498;11.960;2022-08-25T01:19:07;20.10;99.90
29729;DHT22;20055;51.498;11.960;2022-08-25T01:21:40;20.10;99.90
29729;DHT22;20055;51.498;11.960;2022-08-25T01:24:10;20.10;99.90
29729;DHT22;20055;51.498;11.960;2022-08-25T01:26:37;20.10;99.90
29729;DHT22;20055;51.498;11.960;2022-08-25T01:29:06;20.10;99.90
29729;DHT22;20055;51.498;11.960;2022-08-25T01:31:54;20.10;99.90
29729;DHT22;20055;51.498;11.960;2022-08-25T01:34:24;20.10;99.90
29729;DHT22;20055;51.498;11.960;2022-08-25T01:36:51;20.10;99.90
29729;DHT22;20055;51.498;11.960;2022-08-25T01:39:18;20.10;99.90
29729;DHT22;20055;51.498;11.960;2022-08-25T01:44:14;20.10;99.90
29729;DHT22;20055;51.498;11.960;2022-08-25T01:46:41;20.10;99.90
29729;DHT22;20055;51.498;11.960;2022-08-25T01:49:07;20.10;99.90
29729;DHT22;20055;51.498;11.960;2022-08-25T01:51:41;20.10;99.90
29729;DHT22;20055;51.498;11.960;2022-08-25T01:54:08;20.10;99.90
29729;DHT22;20055;51.498;11.960;2022-08-25T01:56:34;20.00;99.90
29729;DHT22;20055;51.498;11.960;2022-08-25T01:59:01;20.10;99.90
29729;DHT22;20055;51.498;11.960;2022-08-25T02:01:27;20.10;99.90
29729;DHT22;20055;51.498;11.960;2022-08-25T02:03:54;20.10;99.90
29729;DHT22;20055;51.498;11.960;2022-08-25T02:06:27;20.10;99.90
29729;DHT22;20055;51.498;11.960;2022-08-25T02:08:55;20.10;99.90
29729;DHT22;20055;51.498;11.960;2022-08-25T02:11:23;20.20;99.90
29729;DHT22;20055;51.498;11.960;2022-08-25T02:13:50;20.10;99.90
29729;DHT22;20055;51.498;11.960;2022-08-25T02:16:21;20.10;99.90
29729;DHT22;20055;51.498;11.960;2022-08-25T02:18:48;20.10;99.90
29729;DHT22;20055;51.498;11.960;2022-08-25T02:21:14;20.10;99.90
29729;DHT22;20055;51.498;11.960;2022-08-25T02:23:42;20.10;99.90
29729;DHT22;20055;51.498;11.960;2022-08-25T02:26:09;20.10;99.90
29729;DHT22;20055;51.498;11.960;2022-08-25T02:28:36;20.10;99.90
29729;DHT22;20055;51.498;11.960;2022-08-25T02:31:05;20.00;99.90
29729;DHT22;20055;51.498;11.960;2022-08-25T02:33:32;20.10;99.90
29729;DHT22;20055;51.498;11.960;2022-08-25T02:35:58;20.10;99.90
29729;DHT22;20055;51.498;11.960;2022-08-25T02:38:26;20.10;99.90
29729;DHT22;20055;51.498;11.960;2022-08-25T02:40:57;20.10;99.90
29729;DHT22;20055;51.498;11.960;2022-08-25T02:43:25;20.10;99.90
29729;DHT22;20055;51.498;11.960;2022-08-25T02:45:52;20.00;99.90
29729;DHT22;20055;51.498;11.960;2022-08-25T02:48:18;19.90;99.90
29729;DHT22;20055;51.498;11.960;2022-08-25T02:50:48;19.80;99.90
29729;DHT22;20055;51.498;11.960;2022-08-25T02:53:17;19.90;99.90
29729;DHT22;20055;51.498;11.960;2022-08-25T02:55:43;19.90;99.90
29729;DHT22;20055;51.498;11.960;2022-08-25T02:58:09;19.90;99.90
29729;DHT22;20055;51.498;11.960;2022-08-25T03:00:36;19.80;99.90
29729;DHT22;20055;51.498;11.960;2022-08-25T03:03:03;19.70;99.90
29729;DHT22;20055;51.498;11.960;2022-08-25T03:05:30;19.80;99.90
29729;DHT22;20055;51.498;11.960;2022-08-25T03:07:56;19.80;99.90
29729;DHT22;20055;51.498;11.960;2022-08-25T03:10:23;19.80;99.90
29729;DHT22;20055;51.498;11.960;2022-08-25T03:12:49;19.80;99.90
29729;DHT22;20055;51.498;11.960;2022-08-25T03:15:15;19.70;99.90
29729;DHT22;20055;51.498;11.960;2022-08-25T03:17:45;19.80;99.90
29729;DHT22;20055;51.498;11.960;2022-08-25T03:20:14;19.70;99.90
29729;DHT22;20055;51.498;11.960;2022-08-25T03:22:41;19.80;99.90
29729;DHT22;20055;51.498;11.960;2022-08-25T03:25:08;19.70;99.90
29729;DHT22;20055;51.498;11.960;2022-08-25T03:27:53;19.70;99.90
29729;DHT22;20055;51.498;11.960;2022-08-25T03:30:19;19.60;99.90
29729;DHT22;20055;51.498;11.960;2022-08-25T03:32:46;19.60;99.90
29729;DHT22;20055;51.498;11.960;2022-08-25T03:35:12;19.50;99.90
29729;DHT22;20055;51.498;11.960;2022-08-25T03:37:39;19.40;99.90
29729;DHT22;20055;51.498;11.960;2022-08-25T03:40:08;19.40;99.90
29729;DHT22;20055;51.498;11.960;2022-08-25T03:42:38;19.30;99.90
29729;DHT22;20055;51.498;11.960;2022-08-25T03:45:05;19.30;99.90
29729;DHT22;20055;51.498;11.960;2022-08-25T03:47:31;19.30;99.90
29729;DHT22;20055;51.498;11.960;2022-08-25T03:49:57;19.20;99.90
29729;DHT22;20055;51.498;11.960;2022-08-25T03:52:24;19.30;99.90
29729;DHT22;20055;51.498;11.960;2022-08-25T03:54:50;19.30;99.90
29729;DHT22;20055;51.498;11.960;2022-08-25T03:57:16;19.20;99.90
29729;DHT22;20055;51.498;11.960;2022-08-25T03:59:44;19.20;99.90
29729;DHT22;20055;51.498;11.960;2022-08-25T04:02:10;19.20;99.90
29729;DHT22;20055;51.498;11.960;2022-08-25T04:04:36;19.30;99.90
29729;DHT22;20055;51.498;11.960;2022-08-25T04:07:02;19.30;99.90
29729;DHT22;20055;51.498;11.960;2022-08-25T04:09:29;19.30;99.90
29729;DHT22;20055;51.498;11.960;2022-08-25T04:11:56;19.30;99.90
29729;DHT22;20055;51.498;11.960;2022-08-25T04:14:22;19.40;99.90
29729;DHT22;20055;51.498;11.960;2022-08-25T04:16:49;19.50;99.90
29729;DHT22;20055;51.498;11.960;2022-08-25T04:19:15;19.60;99.90
29729;DHT22;20055;51.498;11.960;2022-08-25T04:21:41;19.70;99.90
29729;DHT22;20055;51.498;11.960;2022-08-25T04:24:09;19.70;99.90
29729;DHT22;20055;51.498;11.960;2022-08-25T04:26:39;19.70;99.90
29729;DHT22;20055;51.498;11.960;2022-08-25T04:29:07;19.70;99.90
29729;DHT22;20055;51.498;11.960;2022-08-25T04:31:36;19.70;99.90
29729;DHT22;20055;51.498;11.960;2022-08-25T04:34:04;19.70;99.90
29729;DHT22;20055;51.498;11.960;2022-08-25T04:36:30;19.70;99.90
29729;DHT22;20055;51.498;11.960;2022-08-25T04:38:58;19.70;99.90
29729;DHT22;20055;51.498;11.960;2022-08-25T04:41:25;19.90;99.90
29729;DHT22;20055;51.498;11.960;2022-08-25T04:43:52;20.00;99.90
29729;DHT22;20055;51.498;11.960;2022-08-25T04:46:21;20.00;99.90
29729;DHT22;20055;51.498;11.960;2022-08-25T04:48:49;20.10;99.90
29729;DHT22;20055;51.498;11.960;2022-08-25T04:51:19;20.10;99.90
29729;DHT22;20055;51.498;11.960;2022-08-25T04:53:46;20.00;99.90
29729;DHT22;20055;51.498;11.960;2022-08-25T04:56:14;19.80;99.90
29729;DHT22;20055;51.498;11.960;2022-08-25T04:58:41;19.80;99.90
29729;DHT22;20055;51.498;11.960;2022-08-25T05:01:10;19.90;99.90
29729;DHT22;20055;51.498;11.960;2022-08-25T05:03:37;19.80;99.90
29729;DHT22;20055;51.498;11.960;2022-08-25T05:06:04;19.90;99.90
29729;DHT22;20055;51.498;11.960;2022-08-25T05:08:31;19.90;99.90
29729;DHT22;20055;51.498;11.960;2022-08-25T05:10:58;19.90;99.90
29729;DHT22;20055;51.498;11.960;2022-08-25T05:13:25;19.90;99.90
29729;DHT22;20055;51.498;11.960;2022-08-25T05:15:55;20.00;99.90
29729;DHT22;20055;51.498;11.960;2022-08-25T05:18:24;19.90;99.90
29729;DHT22;20055;51.498;11.960;2022-08-25T05:20:51;20.00;99.90
29729;DHT22;20055;51.498;11.960;2022-08-25T05:23:20;20.00;99.90
29729;DHT22;20055;51.498;11.960;2022-08-25T05:25:47;20.20;99.90
29729;DHT22;20055;51.498;11.960;2022-08-25T05:28:14;20.30;99.90
29729;DHT22;20055;51.498;11.960;2022-08-25T05:30:41;20.50;99.90
29729;DHT22;20055;51.498;11.960;2022-08-25T05:33:09;20.60;99.90
29729;DHT22;20055;51.498;11.960;2022-08-25T05:35:35;20.70;99.90
29729;DHT22;20055;51.498;11.960;2022-08-25T05:38:02;20.60;99.90
29729;DHT22;20055;51.498;11.960;2022-08-25T05:40:29;20.50;99.90
29729;DHT22;20055;51.498;11.960;2022-08-25T05:42:55;20.60;99.90
29729;DHT22;20055;51.498;11.960;2022-08-25T05:45:22;20.60;99.90
29729;DHT22;20055;51.498;11.960;2022-08-25T05:47:48;20.60;99.90
29729;DHT22;20055;51.498;11.960;2022-08-25T05:50:16;20.40;99.90
29729;DHT22;20055;51.498;11.960;2022-08-25T05:52:43;20.50;99.90
29729;DHT22;20055;51.498;11.960;2022-08-25T05:55:09;20.70;99.90
29729;DHT22;20055;51.498;11.960;2022-08-25T05:57:36;20.90;99.90
29729;DHT22;20055;51.498;11.960;2022-08-25T06:00:06;21.00;99.90
29729;DHT22;20055;51.498;11.960;2022-08-25T06:02:39;21.20;99.90
29729;DHT22;20055;51.498;11.960;2022-08-25T06:05:17;21.40;99.90
29729;DHT22;20055;51.498;11.960;2022-08-25T06:07:47;21.60;99.90
29729;DHT22;20055;51.498;11.960;2022-08-25T06:10:14;21.70;99.90
29729;DHT22;20055;51.498;11.960;2022-08-25T06:12:43;21.80;99.90
29729;DHT22;20055;51.498;11.960;2022-08-25T06:15:12;21.60;99.90
29729;DHT22;20055;51.498;11.960;2022-08-25T06:17:39;21.50;99.90
29729;DHT22;20055;51.498;11.960;2022-08-25T06:20:11;21.60;99.90
29729;DHT22;20055;51.498;11.960;2022-08-25T06:22:38;21.80;99.90
29729;DHT22;20055;51.498;11.960;2022-08-25T06:25:06;22.00;99.90
29729;DHT22;20055;51.498;11.960;2022-08-25T06:27:33;22.20;99.90
29729;DHT22;20055;51.498;11.960;2022-08-25T06:30:00;22.30;99.90
29729;DHT22;20055;51.498;11.960;2022-08-25T06:32:31;22.40;99.90
29729;DHT22;20055;51.498;11.960;2022-08-25T06:34:57;22.50;99.90
29729;DHT22;20055;51.498;11.960;2022-08-25T06:37:24;22.60;99.90
29729;DHT22;20055;51.498;11.960;2022-08-25T06:39:51;22.80;99.90
29729;DHT22;20055;51.498;11.960;2022-08-25T06:42:17;22.90;99.90
29729;DHT22;20055;51.498;11.960;2022-08-25T06:44:44;22.80;99.90
29729;DHT22;20055;51.498;11.960;2022-08-25T06:47:10;22.80;99.90
29729;DHT22;20055;51.498;11.960;2022-08-25T06:49:37;22.90;99.90
29729;DHT22;20055;51.498;11.960;2022-08-25T06:52:03;23.00;99.90
29729;DHT22;20055;51.498;11.960;2022-08-25T06:54:29;23.10;99.90
29729;DHT22;20055;51.498;11.960;2022-08-25T06:56:56;23.40;99.90
29729;DHT22;20055;51.498;11.960;2022-08-25T06:59:22;23.70;99.90
29729;DHT22;20055;51.498;11.960;2022-08-25T07:01:48;23.80;99.90
29729;DHT22;20055;51.498;11.960;2022-08-25T07:04:15;23.80;99.90
29729;DHT22;20055;51.498;11.960;2022-08-25T07:06:41;23.90;99.90
29729;DHT22;20055;51.498;11.960;2022-08-25T07:09:09;24.00;99.90
29729;DHT22;20055;51.498;11.960;2022-08-25T07:11:36;24.20;99.90
29729;DHT22;20055;51.498;11.960;2022-08-25T07:14:05;24.10;99.90
29729;DHT22;20055;51.498;11.960;2022-08-25T07:16:32;24.10;99.90
29729;DHT22;20055;51.498;11.960;2022-08-25T07:18:59;23.90;99.90
29729;DHT22;20055;51.498;11.960;2022-08-25T07:21:28;23.70;99.90
29729;DHT22;20055;51.498;11.960;2022-08-25T07:23:55;24.00;99.90
29729;DHT22;20055;51.498;11.960;2022-08-25T07:26:27;23.60;99.90
29729;DHT22;20055;51.498;11.960;2022-08-25T07:28:55;23.60;99.90
29729;DHT22;20055;51.498;11.960;2022-08-25T07:31:21;23.60;99.90
29729;DHT22;20055;51.498;11.960;2022-08-25T07:33:48;23.50;99.90
29729;DHT22;20055;51.498;11.960;2022-08-25T07:36:32;23.80;99.90
29729;DHT22;20055;51.498;11.960;2022-08-25T07:38:59;24.20;99.90
29729;DHT22;20055;51.498;11.960;2022-08-25T07:41:31;24.80;99.90
29729;DHT22;20055;51.498;11.960;2022-08-25T07:43:57;24.90;99.90
29729;DHT22;20055;51.498;11.960;2022-08-25T07:46:24;25.30;99.90
29729;DHT22;20055;51.498;11.960;2022-08-25T07:48:50;25.60;99.90
29729;DHT22;20055;51.498;11.960;2022-08-25T07:51:16;25.70;99.90
29729;DHT22;20055;51.498;11.960;2022-08-25T07:53:42;25.00;99.90
29729;DHT22;20055;51.498;11.960;2022-08-25T07:56:12;25.20;99.90
29729;DHT22;20055;51.498;11.960;2022-08-25T07:58:39;25.20;99.90
29729;DHT22;20055;51.498;11.960;2022-08-25T08:01:07;25.20;99.90
29729;DHT22;20055;51.498;11.960;2022-08-25T08:03:38;25.20;99.90
29729;DHT22;20055;51.498;11.960;2022-08-25T08:06:09;24.70;99.90
29729;DHT22;20055;51.498;11.960;2022-08-25T08:08:37;24.60;99.90
29729;DHT22;20055;51.498;11.960;2022-08-25T08:11:23;25.10;99.90
29729;DHT22;20055;51.498;11.960;2022-08-25T08:13:53;25.60;99.90
29729;DHT22;20055;51.498;11.960;2022-08-25T08:16:22;25.60;99.90
29729;DHT22;20055;51.498;11.960;2022-08-25T08:18:49;25.30;99.90
29729;DHT22;20055;51.498;11.960;2022-08-25T08:21:22;25.50;99.90
29729;DHT22;20055;51.498;11.960;2022-08-25T08:23:50;25.60;99.90
29729;DHT22;20055;51.498;11.960;2022-08-25T08:26:17;25.90;99.90
29729;DHT22;20055;51.498;11.960;2022-08-25T08:28:44;25.80;99.90
29729;DHT22;20055;51.498;11.960;2022-08-25T08:31:10;25.60;99.90
29729;DHT22;20055;51.498;11.960;2022-08-25T08:33:37;25.40;99.90
29729;DHT22;20055;51.498;11.960;2022-08-25T08:36:07;25.40;99.90
29729;DHT22;20055;51.498;11.960;2022-08-25T08:38:35;25.30;99.90
29729;DHT22;20055;51.498;11.960;2022-08-25T08:46:53;25.70;99.90
29729;DHT22;20055;51.498;11.960;2022-08-25T08:49:51;25.60;99.90
29729;DHT22;20055;51.498;11.960;2022-08-25T08:52:53;25.60;99.90
29729;DHT22;20055;51.498;11.960;2022-08-25T08:57:59;25.90;99.90
29729;DHT22;20055;51.498;11.960;2022-08-25T09:00:27;25.60;99.90
29729;DHT22;20055;51.498;11.960;2022-08-25T09:03:06;25.40;99.90
29729;DHT22;20055;51.498;11.960;2022-08-25T09:05:46;25.60;99.90
29729;DHT22;20055;51.498;11.960;2022-08-25T09:08:13;25.60;99.90
29729;DHT22;20055;51.498;11.960;2022-08-25T09:10:56;25.50;99.90
29729;DHT22;20055;51.498;11.960;2022-08-25T09:16:52;25.80;99.90
29729;DHT22;20055;51.498;11.960;2022-08-25T09:31:17;26.50;99.90
29729;DHT22;20055;51.498;11.960;2022-08-25T09:33:44;26.60;99.90
29729;DHT22;20055;51.498;11.960;2022-08-25T09:36:11;26.80;99.90
29729;DHT22;20055;51.498;11.960;2022-08-25T09:38:37;26.80;99.90
29729;DHT22;20055;51.498;11.960;2022-08-25T09:41:04;26.80;99.90
29729;DHT22;20055;51.498;11.960;2022-08-25T09:43:37;26.80;99.90
29729;DHT22;20055;51.498;11.960;2022-08-25T09:46:15;26.80;99.90
29729;DHT22;20055;51.498;11.960;2022-08-25T09:48:52;26.60;99.90
29729;DHT22;20055;51.498;11.960;2022-08-25T09:51:27;26.70;99.90
29729;DHT22;20055;51.498;11.960;2022-08-25T09:56:25;26.90;99.90
29729;DHT22;20055;51.498;11.960;2022-08-25T09:58:53;26.80;99.90
29729;DHT22;20055;51.498;11.960;2022-08-25T10:01:22;27.10;99.90
29729;DHT22;20055;51.498;11.960;2022-08-25T10:04:00;27.10;99.90
29729;DHT22;20055;51.498;11.960;2022-08-25T10:06:32;27.00;99.90
29729;DHT22;20055;51.498;11.960;2022-08-25T10:09:04;27.10;99.90
29729;DHT22;20055;51.498;11.960;2022-08-25T10:11:44;27.20;99.90
29729;DHT22;20055;51.498;11.960;2022-08-25T10:16:49;26.90;99.90
29729;DHT22;20055;51.498;11.960;2022-08-25T10:19:23;26.70;99.90
29729;DHT22;20055;51.498;11.960;2022-08-25T10:22:04;26.60;99.90
29729;DHT22;20055;51.498;11.960;2022-08-25T10:24:32;26.80;99.90
29729;DHT22;20055;51.498;11.960;2022-08-25T10:27:15;27.00;99.90
29729;DHT22;20055;51.498;11.960;2022-08-25T10:30:04;27.20;99.90
29729;DHT22;20055;51.498;11.960;2022-08-25T10:32:39;27.40;99.90
29729;DHT22;20055;51.498;11.960;2022-08-25T10:35:23;27.80;99.90
29729;DHT22;20055;51.498;11.960;2022-08-25T10:40:55;27.10;99.90
29729;DHT22;20055;51.498;11.960;2022-08-25T10:46:16;27.40;99.90
29729;DHT22;20055;51.498;11.960;2022-08-25T10:56:48;27.20;99.90
29729;DHT22;20055;51.498;11.960;2022-08-25T11:04:41;27.10;99.90
29729;DHT22;20055;51.498;11.960;2022-08-25T11:07:24;27.20;99.90
29729;DHT22;20055;51.498;11.960;2022-08-25T11:09:54;27.10;99.90
29729;DHT22;20055;51.498;11.960;2022-08-25T11:12:34;27.50;99.90
29729;DHT22;20055;51.498;11.960;2022-08-25T11:15:24;27.30;99.90
29729;DHT22;20055;51.498;11.960;2022-08-25T11:18:03;27.70;99.90
29729;DHT22;20055;51.498;11.960;2022-08-25T11:20:41;27.70;99.90
29729;DHT22;20055;51.498;11.960;2022-08-25T11:23:25;27.70;99.90
29729;DHT22;20055;51.498;11.960;2022-08-25T11:25:57;27.30;99.90
29729;DHT22;20055;51.498;11.960;2022-08-25T11:28:35;27.20;99.90
29729;DHT22;20055;51.498;11.960;2022-08-25T11:31:06;27.30;99.90
29729;DHT22;20055;51.498;11.960;2022-08-25T11:33:33;27.50;99.90
29729;DHT22;20055;51.498;11.960;2022-08-25T11:41:50;28.20;99.90
29729;DHT22;20055;51.498;11.960;2022-08-25T11:51:51;28.30;99.90
29729;DHT22;20055;51.498;11.960;2022-08-25T11:54:47;27.70;99.90
29729;DHT22;20055;51.498;11.960;2022-08-25T11:57:21;27.40;99.90
29729;DHT22;20055;51.498;11.960;2022-08-25T12:02:37;27.30;99.90
29729;DHT22;20055;51.498;11.960;2022-08-25T12:10:51;27.70;99.90
29729;DHT22;20055;51.498;11.960;2022-08-25T12:16:04;28.30;99.90
29729;DHT22;20055;51.498;11.960;2022-08-25T12:23:37;28.40;99.90
29729;DHT22;20055;51.498;11.960;2022-08-25T12:31:49;28.30;99.90
29729;DHT22;20055;51.498;11.960;2022-08-25T12:36:58;28.20;99.90
29729;DHT22;20055;51.498;11.960;2022-08-25T12:39:34;28.20;99.90
29729;DHT22;20055;51.498;11.960;2022-08-25T12:42:05;28.70;99.90
29729;DHT22;20055;51.498;11.960;2022-08-25T12:44:46;28.90;99.90
29729;DHT22;20055;51.498;11.960;2022-08-25T12:47:27;29.00;99.90
29729;DHT22;20055;51.498;11.960;2022-08-25T12:52:55;28.70;99.90
29729;DHT22;20055;51.498;11.960;2022-08-25T12:55:25;28.80;99.90
29729;DHT22;20055;51.498;11.960;2022-08-25T12:57:54;29.10;99.90
29729;DHT22;20055;51.498;11.960;2022-08-25T13:01:05;29.30;99.90
29729;DHT22;20055;51.498;11.960;2022-08-25T13:06:35;28.80;99.90
29729;DHT22;20055;51.498;11.960;2022-08-25T13:09:30;28.40;99.90
29729;DHT22;20055;51.498;11.960;2022-08-25T13:12:29;28.20;99.90
29729;DHT22;20055;51.498;11.960;2022-08-25T13:14:57;28.20;99.90
29729;DHT22;20055;51.498;11.960;2022-08-25T13:17:34;28.30;99.90
29729;DHT22;20055;51.498;11.960;2022-08-25T13:22:47;28.70;99.90
29729;DHT22;20055;51.498;11.960;2022-08-25T13:25:19;28.70;99.90
29729;DHT22;20055;51.498;11.960;2022-08-25T13:27:52;28.60;99.90
29729;DHT22;20055;51.498;11.960;2022-08-25T13:30:39;28.30;99.90
29729;DHT22;20055;51.498;11.960;2022-08-25T13:33:18;28.50;99.90
29729;DHT22;20055;51.498;11.960;2022-08-25T13:35:48;28.80;99.90
29729;DHT22;20055;51.498;11.960;2022-08-25T13:38:17;28.80;99.90
29729;DHT22;20055;51.498;11.960;2022-08-25T13:40:44;28.60;99.90
29729;DHT22;20055;51.498;11.960;2022-08-25T13:43:12;28.50;99.90
29729;DHT22;20055;51.498;11.960;2022-08-25T13:45:44;28.60;99.90
29729;DHT22;20055;51.498;11.960;2022-08-25T13:48:12;28.90;99.90
29729;DHT22;20055;51.498;11.960;2022-08-25T13:50:41;29.20;99.90
29729;DHT22;20055;51.498;11.960;2022-08-25T13:53:25;29.40;99.90
29729;DHT22;20055;51.498;11.960;2022-08-25T13:55:53;29.50;99.90
29729;DHT22;20055;51.498;11.960;2022-08-25T13:58:30;29.70;99.90
29729;DHT22;20055;51.498;11.960;2022-08-25T14:01:14;29.30;99.90
29729;DHT22;20055;51.498;11.960;2022-08-25T14:03:43;28.90;99.90
29729;DHT22;20055;51.498;11.960;2022-08-25T14:11:46;28.80;99.90
29729;DHT22;20055;51.498;11.960;2022-08-25T14:17:10;29.00;99.90
29729;DHT22;20055;51.498;11.960;2022-08-25T14:19:44;28.90;99.90
29729;DHT22;20055;51.498;11.960;2022-08-25T14:22:12;29.10;99.90
29729;DHT22;20055;51.498;11.960;2022-08-25T14:24:38;29.10;99.90
29729;DHT22;20055;51.498;11.960;2022-08-25T14:27:05;29.10;99.90
29729;DHT22;20055;51.498;11.960;2022-08-25T14:29:31;29.20;99.90
29729;DHT22;20055;51.498;11.960;2022-08-25T14:31:58;29.10;99.90
29729;DHT22;20055;51.498;11.960;2022-08-25T14:34:29;29.20;99.90
29729;DHT22;20055;51.498;11.960;2022-08-25T14:36:57;29.30;99.90
29729;DHT22;20055;51.498;11.960;2022-08-25T14:39:25;29.30;99.90
29729;DHT22;20055;51.498;11.960;2022-08-25T14:41:51;29.30;99.90
29729;DHT22;20055;51.498;11.960;2022-08-25T14:44:19;29.30;99.90
29729;DHT22;20055;51.498;11.960;2022-08-25T14:46:52;29.20;99.90
29729;DHT22;20055;51.498;11.960;2022-08-25T14:49:25;29.30;99.90
29729;DHT22;20055;51.498;11.960;2022-08-25T14:51:56;29.40;99.90
29729;DHT22;20055;51.498;11.960;2022-08-25T14:54:25;29.20;99.90
29729;DHT22;20055;51.498;11.960;2022-08-25T14:56:52;29.10;99.90
29729;DHT22;20055;51.498;11.960;2022-08-25T14:59:18;29.00;99.90
29729;DHT22;20055;51.498;11.960;2022-08-25T15:01:45;29.10;99.90
29729;DHT22;20055;51.498;11.960;2022-08-25T15:04:20;29.00;99.90
29729;DHT22;20055;51.498;11.960;2022-08-25T15:06:50;29.00;99.90
29729;DHT22;20055;51.498;11.960;2022-08-25T15:09:19;28.90;99.90
29729;DHT22;20055;51.498;11.960;2022-08-25T15:11:54;29.00;99.90
29729;DHT22;20055;51.498;11.960;2022-08-25T15:14:22;28.80;99.90
29729;DHT22;20055;51.498;11.960;2022-08-25T15:16:55;28.90;99.90
29729;DHT22;20055;51.498;11.960;2022-08-25T15:19:24;28.80;99.90
29729;DHT22;20055;51.498;11.960;2022-08-25T15:21:52;28.90;99.90
29729;DHT22;20055;51.498;11.960;2022-08-25T15:24:20;29.00;99.90
29729;DHT22;20055;51.498;11.960;2022-08-25T15:26:55;29.20;99.90
29729;DHT22;20055;51.498;11.960;2022-08-25T15:29:23;29.00;99.90
29729;DHT22;20055;51.498;11.960;2022-08-25T15:31:52;28.90;99.90
29729;DHT22;20055;51.498;11.960;2022-08-25T15:34:18;29.00;99.90
29729;DHT22;20055;51.498;11.960;2022-08-25T15:36:44;29.00;99.90
29729;DHT22;20055;51.498;11.960;2022-08-25T15:39:12;28.90;99.90
29729;DHT22;20055;51.498;11.960;2022-08-25T15:41:38;28.90;99.90
29729;DHT22;20055;51.498;11.960;2022-08-25T15:44:06;28.80;99.90
29729;DHT22;20055;51.498;11.960;2022-08-25T15:46:34;28.90;99.90
29729;DHT22;20055;51.498;11.960;2022-08-25T15:49:01;28.80;99.90
29729;DHT22;20055;51.498;11.960;2022-08-25T15:51:28;28.60;99.90
29729;DHT22;20055;51.498;11.960;2022-08-25T15:53:55;28.50;99.90
29729;DHT22;20055;51.498;11.960;2022-08-25T15:56:22;28.50;99.90
29729;DHT22;20055;51.498;11.960;2022-08-25T15:58:49;28.50;99.90
29729;DHT22;20055;51.498;11.960;2022-08-25T16:01:21;28.50;99.90
29729;DHT22;20055;51.498;11.960;2022-08-25T16:03:49;28.40;99.90
29729;DHT22;20055;51.498;11.960;2022-08-25T16:06:15;28.40;99.90
29729;DHT22;20055;51.498;11.960;2022-08-25T16:08:42;28.40;99.90
29729;DHT22;20055;51.498;11.960;2022-08-25T16:11:18;28.50;99.90
29729;DHT22;20055;51.498;11.960;2022-08-25T16:13:46;28.70;99.90
29729;DHT22;20055;51.498;11.960;2022-08-25T16:16:14;28.80;99.90
29729;DHT22;20055;51.498;11.960;2022-08-25T16:18:42;28.70;99.90
29729;DHT22;20055;51.498;11.960;2022-08-25T16:21:14;28.70;99.90
29729;DHT22;20055;51.498;11.960;2022-08-25T16:23:41;28.60;99.90
29729;DHT22;20055;51.498;11.960;2022-08-25T16:26:08;28.60;99.90
29729;DHT22;20055;51.498;11.960;2022-08-25T16:28:36;28.70;99.90
29729;DHT22;20055;51.498;11.960;2022-08-25T16:31:12;28.80;99.90
29729;DHT22;20055;51.498;11.960;2022-08-25T16:33:39;28.80;99.90
29729;DHT22;20055;51.498;11.960;2022-08-25T16:36:08;29.00;99.90
29729;DHT22;20055;51.498;11.960;2022-08-25T16:38:36;28.90;99.90
29729;DHT22;20055;51.498;11.960;2022-08-25T16:41:11;28.70;99.90
29729;DHT22;20055;51.498;11.960;2022-08-25T16:43:39;28.70;99.90
29729;DHT22;20055;51.498;11.960;2022-08-25T16:46:07;28.70;99.90
29729;DHT22;20055;51.498;11.960;2022-08-25T16:48:34;28.80;99.90
29729;DHT22;20055;51.498;11.960;2022-08-25T16:51:05;28.70;99.90
29729;DHT22;20055;51.498;11.960;2022-08-25T16:53:32;28.70;99.90
29729;DHT22;20055;51.498;11.960;2022-08-25T16:56:17;28.70;99.90
29729;DHT22;20055;51.498;11.960;2022-08-25T16:58:43;28.40;99.90
29729;DHT22;20055;51.498;11.960;2022-08-25T17:01:11;28.20;99.90
29729;DHT22;20055;51.498;11.960;2022-08-25T17:03:38;28.00;99.90
29729;DHT22;20055;51.498;11.960;2022-08-25T17:06:05;27.90;99.90
29729;DHT22;20055;51.498;11.960;2022-08-25T17:08:34;27.70;99.90
29729;DHT22;20055;51.498;11.960;2022-08-25T17:13:36;27.50;99.90
29729;DHT22;20055;51.498;11.960;2022-08-25T17:16:02;27.50;99.90
29729;DHT22;20055;51.498;11.960;2022-08-25T17:18:29;27.50;99.90
29729;DHT22;20055;51.498;11.960;2022-08-25T17:21:08;27.40;99.90